Alges — CSPH — position and weather

sailwx.info

Track history (hours):
 
Tides and Currents Weather Stations Pressure Air Temp Water Temp Dewpoint Dewpoint Depression Visibility Wind Speed Wind Dir Waves Ship Positions

Alges

Last reported at 2015-Mar-30 17:04 UTC. Time now 2015-Mar-30 23:00 UTC.
Position N 38°41' W 009°09'.

Length 45 m; draft 24.8 m.

Type: Passenger vessel. MMSI: 263700008.

Date/timePositionNaut miles runAvg speedWind from/ knotsBaromVisibWave heightAir tempDewpointWater temp
2015-Mar-30 17:04N 38°41' W 009°09'0 0.0
2015-Mar-30 08:27N 38°41' W 009°09'0 0.0
2015-Mar-30 05:30N 38°41' W 009°09'  
2015-Mar-27 11:31N 38°41' W 009°09'0 0.0
2015-Mar-26 16:24N 38°41' W 009°09'0 0.0
2015-Mar-26 15:32N 38°41' W 009°09'0 0.0
2015-Mar-26 14:30N 38°41' W 009°09'0 0.0
2015-Mar-26 11:18N 38°41' W 009°09'0 0.0
2015-Mar-26 10:33N 38°41' W 009°09'0 0.0
2015-Mar-26 09:33N 38°41' W 009°09'0 0.0
2015-Mar-26 07:14N 38°41' W 009°09'0 0.0
2015-Mar-26 06:33N 38°41' W 009°09'0 0.0
2015-Mar-25 14:33N 38°41' W 009°09'0 0.0
2015-Mar-25 10:33N 38°41' W 009°09'0 0.0
2015-Mar-25 09:33N 38°41' W 009°09'0 0.0
2015-Mar-24 15:32N 38°41' W 009°09'0 0.0
2015-Mar-24 14:33N 38°41' W 009°09'0 0.0
2015-Mar-24 13:33N 38°41' W 009°09'0 0.0
2015-Mar-24 11:25N 38°41' W 009°09'0 0.0
2015-Mar-24 10:33N 38°41' W 009°09'0 0.0
2015-Mar-23 16:22N 38°41' W 009°09'0 0.0
2015-Mar-23 15:33N 38°41' W 009°09'0 0.0
2015-Mar-23 14:33N 38°41' W 009°09'0 0.0
2015-Mar-23 13:33N 38°41' W 009°09'0 0.0
2015-Mar-23 11:24N 38°41' W 009°09'0 0.0
2015-Mar-23 10:33N 38°41' W 009°09'3 1.6
2015-Mar-23 08:33N 38°39' W 009°06'2 1.8
2015-Mar-23 07:34N 38°40' W 009°07'2 2.4
2015-Mar-23 06:33N 38°42' W 009°09'4 4.1
2015-Mar-23 05:33N 38°39' W 009°06'3 0.4
2015-Mar-22 21:33N 38°42' W 009°08'3 3.4
2015-Mar-22 20:33N 38°39' W 009°06'0 0.2
2015-Mar-22 19:33N 38°39' W 009°06'3 3.4
2015-Mar-22 18:33N 38°42' W 009°09'4 3.6
2015-Mar-22 17:33N 38°39' W 009°06'1 0.6
2015-Mar-22 16:33N 38°39' W 009°06'3 3.1
2015-Mar-22 15:34N 38°42' W 009°08'4 3.6
2015-Mar-22 14:33N 38°39' W 009°06'3 3.5
2015-Mar-22 13:33N 38°42' W 009°08'3 3.4
2015-Mar-22 12:33N 38°39' W 009°06'4 4.0
2015-Mar-22 11:31N 38°42' W 009°09'4 4.2
2015-Mar-22 10:33N 38°39' W 009°06'4 3.6
2015-Mar-22 09:34N 38°42' W 009°08'0 0.1
2015-Mar-22 08:33N 38°42' W 009°08'4 3.6
2015-Mar-22 07:33N 38°39' W 009°06'0 0.0
2015-Mar-21 22:23N 38°39' W 009°06'0 0.1
2015-Mar-21 21:34N 38°39' W 009°06'1 0.6
2015-Mar-21 20:34N 38°40' W 009°06'1 0.7
2015-Mar-21 19:32N 38°39' W 009°06'3 3.5
2015-Mar-21 18:33N 38°42' W 009°09'3 3.4
2015-Mar-21 17:33N 38°39' W 009°06'1 0.7
2015-Mar-21 16:33N 38°40' W 009°06'3 2.7
2015-Mar-21 15:33N 38°42' W 009°08'0 0.1
2015-Mar-21 13:34N 38°42' W 009°08'3 3.3
2015-Mar-21 12:33N 38°39' W 009°06'4 3.7
2015-Mar-21 11:33N 38°42' W 009°09'4 3.6
2015-Mar-21 10:33N 38°39' W 009°06'4 3.8
2015-Mar-21 09:33N 38°42' W 009°08'0 0.2
2015-Mar-21 08:33N 38°42' W 009°08'0 0.1
2015-Mar-21 07:33N 38°42' W 009°08'4 3.6
2015-Mar-21 06:33N 38°39' W 009°06'0 0.0
2015-Mar-20 23:33N 38°39' W 009°06'1 0.8
2015-Mar-20 22:34N 38°40' W 009°06'0 0.4
2015-Mar-20 21:33N 38°39' W 009°06'0 0.1
2015-Mar-20 20:34N 38°39' W 009°06'3 3.2
2015-Mar-20 19:33N 38°42' W 009°08'0 0.4
2015-Mar-20 18:33N 38°42' W 009°09'4 3.8
2015-Mar-20 17:33N 38°39' W 009°06'  
Track history (hours):
 
Tides and Currents Weather Stations Pressure Air Temp Water Temp Dewpoint Dewpoint Depression Visibility Wind Speed Wind Dir Waves Ship Positions

Alges

Last reported at 2015-Mar-30 17:04 UTC. Time now 2015-Mar-30 23:00 UTC.
Position N 38°41' W 009°09'.

Length 45 m; draft 24.8 m.

Type: Passenger vessel. MMSI: 263700008.

Date/timePositionNaut miles runAvg speedWind from/ knotsBaromVisibWave heightAir tempDewpointWater temp
2015-Mar-30 17:04N 38°41' W 009°09'0 0.0
2015-Mar-30 08:27N 38°41' W 009°09'0 0.0
2015-Mar-30 05:30N 38°41' W 009°09'  
2015-Mar-27 11:31N 38°41' W 009°09'0 0.0
2015-Mar-26 16:24N 38°41' W 009°09'0 0.0
2015-Mar-26 15:32N 38°41' W 009°09'0 0.0
2015-Mar-26 14:30N 38°41' W 009°09'0 0.0
2015-Mar-26 11:18N 38°41' W 009°09'0 0.0
2015-Mar-26 10:33N 38°41' W 009°09'0 0.0
2015-Mar-26 09:33N 38°41' W 009°09'0 0.0
2015-Mar-26 07:14N 38°41' W 009°09'0 0.0
2015-Mar-26 06:33N 38°41' W 009°09'0 0.0
2015-Mar-25 14:33N 38°41' W 009°09'0 0.0
2015-Mar-25 10:33N 38°41' W 009°09'0 0.0
2015-Mar-25 09:33N 38°41' W 009°09'0 0.0
2015-Mar-24 15:32N 38°41' W 009°09'0 0.0
2015-Mar-24 14:33N 38°41' W 009°09'0 0.0
2015-Mar-24 13:33N 38°41' W 009°09'0 0.0
2015-Mar-24 11:25N 38°41' W 009°09'0 0.0
2015-Mar-24 10:33N 38°41' W 009°09'0 0.0
2015-Mar-23 16:22N 38°41' W 009°09'0 0.0
2015-Mar-23 15:33N 38°41' W 009°09'0 0.0
2015-Mar-23 14:33N 38°41' W 009°09'0 0.0
2015-Mar-23 13:33N 38°41' W 009°09'0 0.0
2015-Mar-23 11:24N 38°41' W 009°09'0 0.0
2015-Mar-23 10:33N 38°41' W 009°09'3 1.6
2015-Mar-23 08:33N 38°39' W 009°06'2 1.8
2015-Mar-23 07:34N 38°40' W 009°07'2 2.4
2015-Mar-23 06:33N 38°42' W 009°09'4 4.1
2015-Mar-23 05:33N 38°39' W 009°06'3 0.4
2015-Mar-22 21:33N 38°42' W 009°08'3 3.4
2015-Mar-22 20:33N 38°39' W 009°06'0 0.2
2015-Mar-22 19:33N 38°39' W 009°06'3 3.4
2015-Mar-22 18:33N 38°42' W 009°09'4 3.6
2015-Mar-22 17:33N 38°39' W 009°06'1 0.6
2015-Mar-22 16:33N 38°39' W 009°06'3 3.1
2015-Mar-22 15:34N 38°42' W 009°08'4 3.6
2015-Mar-22 14:33N 38°39' W 009°06'3 3.5
2015-Mar-22 13:33N 38°42' W 009°08'3 3.4
2015-Mar-22 12:33N 38°39' W 009°06'4 4.0
2015-Mar-22 11:31N 38°42' W 009°09'4 4.2
2015-Mar-22 10:33N 38°39' W 009°06'4 3.6
2015-Mar-22 09:34N 38°42' W 009°08'0 0.1
2015-Mar-22 08:33N 38°42' W 009°08'4 3.6
2015-Mar-22 07:33N 38°39' W 009°06'0 0.0
2015-Mar-21 22:23N 38°39' W 009°06'0 0.1
2015-Mar-21 21:34N 38°39' W 009°06'1 0.6
2015-Mar-21 20:34N 38°40' W 009°06'1 0.7
2015-Mar-21 19:32N 38°39' W 009°06'3 3.5
2015-Mar-21 18:33N 38°42' W 009°09'3 3.4
2015-Mar-21 17:33N 38°39' W 009°06'1 0.7
2015-Mar-21 16:33N 38°40' W 009°06'3 2.7
2015-Mar-21 15:33N 38°42' W 009°08'0 0.1
2015-Mar-21 13:34N 38°42' W 009°08'3 3.3
2015-Mar-21 12:33N 38°39' W 009°06'4 3.7
2015-Mar-21 11:33N 38°42' W 009°09'4 3.6
2015-Mar-21 10:33N 38°39' W 009°06'4 3.8
2015-Mar-21 09:33N 38°42' W 009°08'0 0.2
2015-Mar-21 08:33N 38°42' W 009°08'0 0.1
2015-Mar-21 07:33N 38°42' W 009°08'4 3.6
2015-Mar-21 06:33N 38°39' W 009°06'0 0.0
2015-Mar-20 23:33N 38°39' W 009°06'1 0.8
2015-Mar-20 22:34N 38°40' W 009°06'0 0.4
2015-Mar-20 21:33N 38°39' W 009°06'0 0.1
2015-Mar-20 20:34N 38°39' W 009°06'3 3.2
2015-Mar-20 19:33N 38°42' W 009°08'0 0.4
2015-Mar-20 18:33N 38°42' W 009°09'4 3.8
2015-Mar-20 17:33N 38°39' W 009°06'  

Dump ship's entire track history